Terminal Aerodrome Forecast
Issued by NWS

Home | Current Version | Previous Version | Text Only | Print | Product List | Glossary On
Versions: 1 2 3 4 5 6 7 8 9 10 11 12 13 14 15 16 17 18 19 20 21 22
000
FTUS41 KOKX 060545
TAFSWF
TAF
KSWF 060545Z 0606/0712 00000KT P6SM SCT250
      TEMPO 0609/0611 4SM BR
     FM061500 22005KT P6SM BKN200
     FM061800 20007KT P6SM FEW050 BKN150
     FM062100 19007KT P6SM SCT070 BKN120
     FM070000 17004KT P6SM SCT050 BKN100
     FM070500 14004KT 5SM BR BKN015 PROB30 0709/0712 4SM -SHRA BR
      OVC010
      AMD NOT SKED=

USA.gov is the U.S. government's official web portal to all federal, state and local government web resources and services.